createdAt,value
2022-10-13T00:00:48.964Z,100001.44
2022-10-13T00:03:16.559Z,99993.75
2022-10-13T00:05:48.434Z,99994.59
2022-10-13T00:08:19.768Z,99993.03
2022-10-13T00:10:47.985Z,99986.72
2022-10-13T00:13:15.659Z,99986.97
2022-10-13T00:15:45.215Z,99982.09
2022-10-13T00:18:12.155Z,99976.03
2022-10-13T00:20:49.743Z,99982.91
2022-10-13T00:23:17.066Z,99978.28
2022-10-13T00:25:45.881Z,99977.22
2022-10-13T00:28:13.526Z,99982.72
2022-10-13T00:30:40.868Z,99972.16
2022-10-13T00:33:08.859Z,99979.28
2022-10-13T00:35:41.217Z,99969.19
2022-10-13T00:38:07.964Z,99972.16
2022-10-13T00:40:34.468Z,99972.88
2022-10-13T00:43:00.977Z,99967.69
2022-10-13T00:45:32.044Z,99965.47
2022-10-13T00:48:01.771Z,99973.56
2022-10-13T00:50:37.603Z,99968.28
2022-10-13T00:53:05.848Z,99972.69
2022-10-13T00:55:35.005Z,99964.22
2022-10-13T00:58:05.672Z,99960.53
2022-10-13T01:00:33.868Z,99966.72
2022-10-13T01:03:04.034Z,99964.22
2022-10-13T01:05:31.156Z,99960.94
2022-10-13T01:07:59.457Z,99967.97
2022-10-13T01:10:51.958Z,99956.63
2022-10-13T01:13:21.367Z,99956.22
2022-10-13T01:15:58.380Z,99960.53
2022-10-13T01:18:45.119Z,99953.56
2022-10-13T01:21:17.704Z,99951.47
2022-10-13T01:24:15.352Z,99954.59
2022-10-13T01:27:16.165Z,99956.28
2022-10-13T01:30:04.914Z,99954.06
2022-10-13T01:32:58.335Z,99950.13
2022-10-13T01:35:41.668Z,99957.91
2022-10-13T01:38:27.886Z,99958.94
2022-10-13T01:41:16.330Z,99957.56
2022-10-13T01:43:56.284Z,99959.84
2022-10-13T01:46:28.701Z,99959.97
2022-10-13T01:48:58.196Z,99955.94
2022-10-13T01:51:27.019Z,99950.53
2022-10-13T01:53:53.745Z,99945.16
2022-10-13T01:56:20.535Z,99945.72
2022-10-13T01:58:49.874Z,99941.69
2022-10-13T02:01:47.591Z,99939.19
2022-10-13T02:04:25.968Z,99943.88
2022-10-13T02:07:11.362Z,99943.22
2022-10-13T02:10:09.533Z,99936.69
2022-10-13T02:12:57.946Z,99930.28
2022-10-13T02:15:33.010Z,99935.91
2022-10-13T02:18:02.022Z,99926.84
2022-10-13T02:20:28.582Z,99920.88
2022-10-13T02:23:01.245Z,99933.03
2022-10-13T02:25:28.807Z,99930.19
2022-10-13T02:27:57.871Z,99932.69
2022-10-13T02:30:28.664Z,99937.59
2022-10-13T02:32:55.288Z,99939.75
2022-10-13T02:35:21.949Z,99936.44
2022-10-13T02:37:48.447Z,99942.97
2022-10-13T02:40:15.123Z,99935.84
2022-10-13T02:42:41.669Z,99939.16
2022-10-13T02:45:09.003Z,99928.59
2022-10-13T02:47:35.577Z,99941.78
2022-10-13T02:50:02.446Z,99935.22
2022-10-13T02:52:28.999Z,99931.28
2022-10-13T02:54:55.519Z,99935.31
2022-10-13T02:57:22.584Z,99944.50
2022-10-13T02:59:49.157Z,99930.09
2022-10-13T03:02:15.916Z,99933.06
2022-10-13T03:04:42.405Z,99935.81
2022-10-13T03:07:08.947Z,99933.16
2022-10-13T03:09:36.076Z,99930.50
2022-10-13T03:12:02.617Z,99935.75
2022-10-13T03:14:29.104Z,99933.00
2022-10-13T03:16:55.574Z,99936.66
2022-10-13T03:19:22.141Z,99941.66
2022-10-13T03:21:49.467Z,99935.47
2022-10-13T03:24:15.985Z,99932.22
2022-10-13T03:26:42.474Z,99934.84
2022-10-13T03:29:15.906Z,99937.47
2022-10-13T03:31:42.584Z,99932.44
2022-10-13T03:34:10.441Z,99935.72
2022-10-13T03:36:36.959Z,99938.66
2022-10-13T03:39:03.867Z,99933.69
2022-10-13T03:41:30.397Z,99931.09
2022-10-13T03:43:56.908Z,99938.69
2022-10-13T03:46:26.484Z,99934.78
2022-10-13T03:48:53.034Z,99924.63
2022-10-13T03:51:20.881Z,99930.31
2022-10-13T03:53:48.873Z,99924.81
2022-10-13T03:56:18.595Z,99917.00
2022-10-13T03:58:45.165Z,99925.75
2022-10-13T04:01:13.791Z,99928.03
2022-10-13T04:03:40.583Z,99929.59
2022-10-13T04:06:07.207Z,99921.34
2022-10-13T04:08:34.363Z,99922.59
2022-10-13T04:11:03.445Z,99927.31
2022-10-13T04:13:30.182Z,99935.31
2022-10-13T04:15:56.663Z,99921.09
2022-10-13T04:18:23.191Z,99928.72
2022-10-13T04:20:50.170Z,99921.59
2022-10-13T04:23:16.649Z,99926.25
2022-10-13T04:25:43.163Z,99927.13
2022-10-13T04:28:11.394Z,99923.22
2022-10-13T04:30:38.077Z,99923.91
2022-10-13T04:33:05.316Z,99929.44
2022-10-13T04:35:32.109Z,99924.94
2022-10-13T04:37:58.708Z,99932.75
2022-10-13T04:40:26.379Z,99928.81
2022-10-13T04:42:53.193Z,99934.25
2022-10-13T04:45:19.835Z,99926.78
2022-10-13T04:47:46.382Z,99934.69
2022-10-13T04:50:12.943Z,99928.34
2022-10-13T04:52:39.479Z,99922.22
2022-10-13T04:55:06.573Z,99925.53
2022-10-13T04:57:33.333Z,99931.22
2022-10-13T04:59:59.892Z,99931.22
2022-10-13T05:02:26.458Z,99932.91
2022-10-13T05:04:52.953Z,99934.44
2022-10-13T05:07:19.471Z,99932.13
2022-10-13T05:09:46.425Z,99940.41
2022-10-13T05:12:13.059Z,99945.28
2022-10-13T05:14:39.552Z,99945.19
2022-10-13T05:17:06.041Z,99945.09
2022-10-13T05:19:32.743Z,99953.81
2022-10-13T05:21:59.283Z,99950.25
2022-10-13T05:24:36.540Z,99949.91
2022-10-13T05:27:05.598Z,99948.44
2022-10-13T05:29:32.354Z,99953.69
2022-10-13T05:31:58.849Z,99946.44
2022-10-13T05:34:25.490Z,99948.03
2022-10-13T05:36:52.233Z,99947.59
2022-10-13T05:39:19.083Z,99955.59
2022-10-13T05:41:45.663Z,99945.50
2022-10-13T05:44:12.167Z,99956.41
2022-10-13T05:46:38.674Z,99958.03
2022-10-13T05:49:05.228Z,99947.06
2022-10-13T05:51:38.974Z,99966.94
2022-10-13T05:54:30.907Z,99952.34
2022-10-13T05:57:05.731Z,99951.88
2022-10-13T05:59:39.700Z,99958.91
2022-10-13T06:02:09.581Z,99960.28
2022-10-13T06:04:39.780Z,99963.22
2022-10-13T06:07:08.058Z,99971.31
2022-10-13T06:09:37.993Z,99969.13
2022-10-13T06:12:05.877Z,99975.59
2022-10-13T06:14:32.405Z,99979.66
2022-10-13T06:16:59.088Z,99976.56
2022-10-13T06:19:25.816Z,99979.66
2022-10-13T06:21:52.382Z,99978.84
2022-10-13T06:24:19.038Z,99982.16
2022-10-13T06:26:46.171Z,99970.75
2022-10-13T06:29:12.732Z,99977.34
2022-10-13T06:31:39.263Z,99975.84
2022-10-13T06:34:05.925Z,99978.16
2022-10-13T06:36:32.409Z,99982.50
2022-10-13T06:38:58.914Z,99982.09
2022-10-13T06:41:25.513Z,99984.41
2022-10-13T06:43:52.126Z,99984.28
2022-10-13T06:46:18.794Z,99981.91
2022-10-13T06:48:45.436Z,99981.75
2022-10-13T06:51:12.737Z,99983.91
2022-10-13T06:53:39.478Z,99982.34
2022-10-13T06:56:07.238Z,99978.69
2022-10-13T06:58:37.816Z,99983.09
2022-10-13T07:01:05.465Z,99985.38
2022-10-13T07:03:32.255Z,99986.41
2022-10-13T07:06:03.874Z,99989.38
2022-10-13T07:08:31.519Z,99983.03
2022-10-13T07:10:58.649Z,99980.94
2022-10-13T07:13:25.341Z,99973.97
2022-10-13T07:15:51.904Z,99974.97
2022-10-13T07:18:18.454Z,99971.06
2022-10-13T07:20:44.930Z,99971.78
2022-10-13T07:23:11.428Z,99972.28
2022-10-13T07:25:38.010Z,99970.38
2022-10-13T07:28:04.564Z,99973.66
2022-10-13T07:30:31.101Z,99973.13
2022-10-13T07:32:57.588Z,99972.66
2022-10-13T07:35:29.659Z,99968.81
2022-10-13T07:37:57.519Z,99980.25
2022-10-13T07:40:24.371Z,99973.25
2022-10-13T07:42:51.078Z,99970.91
2022-10-13T07:45:17.828Z,99969.63
2022-10-13T07:47:44.368Z,99964.59
2022-10-13T07:50:11.785Z,99963.41
2022-10-13T07:52:38.312Z,99958.22
2022-10-13T07:55:05.599Z,99960.59
2022-10-13T07:57:32.574Z,99968.47
2022-10-13T07:59:59.085Z,99965.94
2022-10-13T08:02:26.316Z,99958.00
2022-10-13T08:04:52.916Z,99963.59
2022-10-13T08:07:19.675Z,99957.94
2022-10-13T08:09:46.372Z,99953.50
2022-10-13T08:12:12.949Z,99949.47
2022-10-13T08:14:39.548Z,99946.34
2022-10-13T08:17:06.205Z,99947.91
2022-10-13T08:19:32.739Z,99949.63
2022-10-13T08:22:00.113Z,99951.63
2022-10-13T08:24:27.597Z,99950.28
2022-10-13T08:26:54.360Z,99954.13
2022-10-13T08:29:22.576Z,99945.56
2022-10-13T08:31:51.227Z,99947.34
2022-10-13T08:34:17.965Z,99946.63
2022-10-13T08:36:44.566Z,99947.44
2022-10-13T08:39:11.100Z,99947.84
2022-10-13T08:41:41.424Z,99952.63
2022-10-13T08:47:46.842Z,99947.00
2022-10-13T08:50:21.508Z,99947.19
2022-10-13T08:52:53.681Z,99954.31
2022-10-13T08:55:35.154Z,99957.44
2022-10-13T08:58:06.454Z,99951.91
2022-10-13T09:00:32.977Z,99951.97
2022-10-13T09:03:19.924Z,99943.34
2022-10-13T09:05:57.082Z,99953.72
2022-10-13T09:08:26.979Z,99954.53
2022-10-13T09:10:53.914Z,99953.72
2022-10-13T09:13:20.685Z,99955.78
2022-10-13T09:15:53.049Z,99959.47
2022-10-13T09:18:28.895Z,99966.28
2022-10-13T09:21:23.488Z,99955.94
2022-10-13T09:23:54.196Z,99958.38
2022-10-13T09:26:25.411Z,99957.59
2022-10-13T09:28:52.475Z,99956.75
2022-10-13T09:31:25.262Z,99955.47
2022-10-13T09:34:11.995Z,99950.91
2022-10-13T09:36:38.621Z,99952.66
2022-10-13T09:39:08.848Z,99956.38
2022-10-13T09:41:36.249Z,99965.03
2022-10-13T09:44:12.596Z,99948.56
2022-10-13T09:46:52.886Z,99948.22
2022-10-13T09:49:41.460Z,99955.38
2022-10-13T09:52:18.182Z,99954.69
2022-10-13T09:55:03.208Z,99951.94
2022-10-13T09:57:45.850Z,99951.56
2022-10-13T10:00:23.941Z,99959.13
2022-10-13T10:03:12.318Z,99948.38
2022-10-13T10:05:50.710Z,99944.78
2022-10-13T10:09:02.079Z,99951.16
2022-10-13T10:11:33.682Z,99936.44
2022-10-13T10:14:26.350Z,99944.78
2022-10-13T10:17:11.280Z,99934.44
2022-10-13T10:19:52.970Z,99931.66
2022-10-13T10:22:34.815Z,99936.81
2022-10-13T10:25:19.680Z,99933.66
2022-10-13T10:28:03.988Z,99923.28
2022-10-13T10:30:34.979Z,99925.66
2022-10-13T10:33:12.130Z,99919.25
2022-10-13T10:35:38.955Z,99919.25
2022-10-13T10:38:39.152Z,99916.06
2022-10-13T10:41:34.741Z,99915.28
2022-10-13T10:44:08.725Z,99921.69
2022-10-13T10:46:40.487Z,99915.72
2022-10-13T10:49:31.063Z,99914.56
2022-10-13T10:52:00.070Z,99910.50
2022-10-13T10:54:40.830Z,99913.69
2022-10-13T10:57:20.307Z,99908.38
2022-10-13T10:59:51.467Z,99902.25
2022-10-13T11:02:24.613Z,99898.00
2022-10-13T11:04:55.443Z,99892.91
2022-10-13T11:07:24.736Z,99895.75
2022-10-13T11:09:54.963Z,99879.13
2022-10-13T11:12:21.877Z,99873.50
2022-10-13T11:15:02.323Z,99867.53
2022-10-13T11:17:34.144Z,99874.69
2022-10-13T11:20:00.954Z,99873.09
2022-10-13T11:22:31.139Z,99874.28
2022-10-13T11:25:04.464Z,99871.47
2022-10-13T11:27:33.971Z,99865.13
2022-10-13T11:30:01.454Z,99859.09
2022-10-13T11:32:28.237Z,99854.34
2022-10-13T11:35:01.019Z,99853.09
2022-10-13T11:38:05.860Z,99846.75
2022-10-13T11:40:44.958Z,99845.13
2022-10-13T11:43:42.270Z,99851.88
2022-10-13T11:46:14.654Z,99845.97
2022-10-13T11:49:18.549Z,99837.59
2022-10-13T11:52:12.373Z,99832.41
2022-10-13T11:54:41.521Z,99828.34
2022-10-13T11:57:20.024Z,99827.59
2022-10-13T11:59:49.982Z,99826.72
2022-10-13T12:02:19.147Z,99825.19
2022-10-13T12:05:04.303Z,99826.00
2022-10-13T12:07:37.123Z,99819.63
2022-10-13T12:10:07.450Z,99815.19
2022-10-13T12:12:34.497Z,99813.16
2022-10-13T12:15:04.376Z,99815.19
2022-10-13T12:17:40.982Z,99806.91
2022-10-13T12:20:29.639Z,99803.00
2022-10-13T12:22:57.193Z,99798.25
2022-10-13T12:25:30.033Z,99791.91
2022-10-13T12:27:59.777Z,99783.88
2022-10-13T12:30:36.997Z,99788.63
2022-10-13T12:33:18.061Z,99779.09
2022-10-13T12:35:44.770Z,99776.28
2022-10-13T12:38:21.871Z,99783.81
2022-10-13T12:40:50.065Z,99780.59
2022-10-13T12:43:25.269Z,99783.00
2022-10-13T12:45:52.125Z,99779.41
2022-10-13T12:48:33.466Z,99781.75
2022-10-13T12:51:19.946Z,99773.84
2022-10-13T12:53:48.017Z,99779.00
2022-10-13T12:56:27.636Z,99770.25
2022-10-13T12:58:55.217Z,99770.63
2022-10-13T13:01:28.350Z,99769.19
2022-10-13T13:03:58.296Z,99767.56
2022-10-13T13:06:36.935Z,99770.03
2022-10-13T13:09:12.588Z,99764.41
2022-10-13T13:11:39.427Z,99757.94
2022-10-13T13:14:36.486Z,99749.38
2022-10-13T13:20:24.947Z,99742.28
2022-10-13T13:22:51.594Z,99744.63
2022-10-13T13:25:18.339Z,99742.19
2022-10-13T13:27:45.308Z,99742.94
2022-10-13T13:30:13.657Z,99744.59
2022-10-13T13:32:40.618Z,99750.19
2022-10-13T13:35:08.018Z,99744.72
2022-10-13T13:37:37.509Z,99739.22
2022-10-13T13:40:05.930Z,99733.91
2022-10-13T13:42:32.872Z,99739.34
2022-10-13T13:44:59.426Z,99741.25
2022-10-13T13:47:28.125Z,99728.53
2022-10-13T13:49:56.648Z,99732.53
2022-10-13T13:52:25.272Z,99727.00
2022-10-13T13:54:52.645Z,99723.84
2022-10-13T13:57:20.567Z,99725.44
2022-10-13T13:59:47.636Z,99722.28
2022-10-13T14:02:17.844Z,99716.50
2022-10-13T14:04:44.841Z,99724.31
2022-10-13T14:07:11.891Z,99717.94
2022-10-13T14:09:39.103Z,99716.47
2022-10-13T14:12:05.833Z,99716.91
2022-10-13T14:14:32.602Z,99713.06
2022-10-13T14:17:00.685Z,99711.59
2022-10-13T14:19:27.625Z,99713.97
2022-10-13T14:21:54.154Z,99705.19
2022-10-13T14:24:21.122Z,99700.41
2022-10-13T14:26:48.706Z,99693.22
2022-10-13T14:29:15.977Z,99694.78
2022-10-13T14:31:42.686Z,99694.75
2022-10-13T14:34:09.840Z,99699.56
2022-10-13T14:36:36.384Z,99701.16
2022-10-13T14:39:03.056Z,99695.13
2022-10-13T14:41:29.616Z,99693.13
2022-10-13T14:43:57.237Z,99686.44
2022-10-13T14:46:26.052Z,99688.47
2022-10-13T14:48:52.765Z,99684.56
2022-10-13T14:51:19.282Z,99694.09
2022-10-13T14:53:45.985Z,99687.72
2022-10-13T14:56:29.641Z,99685.38
2022-10-13T14:59:01.034Z,99680.56
2022-10-13T15:01:28.046Z,99682.97
2022-10-13T15:03:55.221Z,99680.97
2022-10-13T15:06:23.800Z,99674.25
2022-10-13T15:08:51.081Z,99676.63
2022-10-13T15:11:19.090Z,99673.84
2022-10-13T15:13:45.968Z,99672.69
2022-10-13T15:16:17.079Z,99666.31
2022-10-13T15:18:44.273Z,99670.69
2022-10-13T15:21:11.458Z,99667.50
2022-10-13T15:23:38.012Z,99670.28
2022-10-13T15:26:05.111Z,99671.41
2022-10-13T15:28:40.473Z,99676.84
2022-10-13T15:31:07.480Z,99666.00
2022-10-13T15:33:34.612Z,99668.34
2022-10-13T15:36:01.342Z,99666.63
2022-10-13T15:38:28.348Z,99661.31
2022-10-13T15:41:03.454Z,99664.78
2022-10-13T15:43:31.314Z,99665.47
2022-10-13T15:46:04.283Z,99666.53
2022-10-13T15:48:31.907Z,99664.81
2022-10-13T15:50:58.486Z,99667.09
2022-10-13T15:53:25.476Z,99665.69
2022-10-13T15:55:52.233Z,99656.03
2022-10-13T15:58:19.237Z,99656.75
2022-10-13T16:00:46.030Z,99656.66
2022-10-13T16:03:15.629Z,99657.31
2022-10-13T16:05:43.638Z,99656.41
2022-10-13T16:08:10.887Z,99658.72
2022-10-13T16:10:44.001Z,99655.44
2022-10-13T16:13:14.964Z,99657.81
2022-10-13T16:15:42.943Z,99661.25
2022-10-13T16:18:09.607Z,99662.00
2022-10-13T16:20:38.663Z,99662.28
2022-10-13T16:23:05.481Z,99668.50
2022-10-13T16:25:32.135Z,99662.47
2022-10-13T16:27:59.492Z,99654.81
2022-10-13T16:30:26.820Z,99658.69
2022-10-13T16:32:55.082Z,99655.41
2022-10-13T16:35:22.015Z,99653.84
2022-10-13T16:37:48.577Z,99662.47
2022-10-13T16:40:15.632Z,99657.28
2022-10-13T16:42:43.370Z,99656.47
2022-10-13T16:45:10.172Z,99653.69
2022-10-13T16:47:36.759Z,99654.56
2022-10-13T16:50:09.245Z,99655.38
2022-10-13T16:52:37.123Z,99656.03
2022-10-13T16:55:05.397Z,99658.78
2022-10-13T16:57:32.749Z,99656.44
2022-10-13T16:59:59.318Z,99656.91
2022-10-13T17:02:25.903Z,99661.56
2022-10-13T17:04:52.522Z,99663.38
2022-10-13T17:07:19.244Z,99659.72
2022-10-13T17:09:46.010Z,99659.63
2022-10-13T17:12:12.593Z,99661.56
2022-10-13T17:14:40.271Z,99661.88
2022-10-13T17:17:06.955Z,99660.03
2022-10-13T17:19:33.548Z,99663.41
2022-10-13T17:22:00.199Z,99654.19
2022-10-13T17:24:26.981Z,99658.84
2022-10-13T17:26:53.505Z,99650.94
2022-10-13T17:29:20.049Z,99654.91
2022-10-13T17:31:46.762Z,99652.47
2022-10-13T17:34:13.316Z,99655.59
2022-10-13T17:36:39.839Z,99657.56
2022-10-13T17:39:08.517Z,99662.94
2022-10-13T17:41:35.437Z,99662.03
2022-10-13T17:44:02.163Z,99660.47
2022-10-13T17:46:36.717Z,99665.50
2022-10-13T17:49:04.551Z,99660.28
2022-10-13T17:51:31.184Z,99662.19
2022-10-13T17:53:59.727Z,99664.44
2022-10-13T17:56:27.185Z,99660.34
2022-10-13T17:58:54.069Z,99661.03
2022-10-13T18:01:25.761Z,99670.00
2022-10-13T18:03:56.066Z,99673.50
2022-10-13T18:06:23.003Z,99665.94
2022-10-13T18:08:52.767Z,99666.22
2022-10-13T18:11:21.232Z,99668.09
2022-10-13T18:13:47.982Z,99668.53
2022-10-13T18:16:20.146Z,99659.81
2022-10-13T18:18:47.259Z,99664.47
2022-10-13T18:21:16.414Z,99664.38
2022-10-13T18:23:43.171Z,99670.63
2022-10-13T18:26:12.504Z,99660.38
2022-10-13T18:28:40.668Z,99661.09
2022-10-13T18:31:18.930Z,99659.09
2022-10-13T18:33:46.683Z,99657.78
2022-10-13T18:36:13.815Z,99653.78
2022-10-13T18:38:40.385Z,99656.75
2022-10-13T18:41:06.947Z,99653.03
2022-10-13T18:43:33.484Z,99648.50
2022-10-13T18:46:01.527Z,99646.47
2022-10-13T18:48:28.464Z,99645.50
2022-10-13T18:50:55.046Z,99644.19
2022-10-13T18:53:21.808Z,99647.28
2022-10-13T18:55:48.424Z,99653.63
2022-10-13T18:58:14.975Z,99648.44
2022-10-13T19:00:41.588Z,99648.00
2022-10-13T19:03:08.332Z,99648.44
2022-10-13T19:05:39.283Z,99650.84
2022-10-13T19:08:09.366Z,99650.16
2022-10-13T19:10:36.946Z,99644.19
2022-10-13T19:13:03.801Z,99650.41
2022-10-13T19:15:30.334Z,99653.63
2022-10-13T19:17:56.819Z,99654.06
2022-10-13T19:20:23.467Z,99663.84
2022-10-13T19:22:49.991Z,99648.81
2022-10-13T19:25:16.695Z,99661.88
2022-10-13T19:27:43.213Z,99657.59
2022-10-13T19:30:10.638Z,99657.50
2022-10-13T19:32:39.979Z,99656.38
2022-10-13T19:35:06.658Z,99661.59
2022-10-13T19:37:33.223Z,99661.94
2022-10-13T19:39:59.965Z,99666.69
2022-10-13T19:42:26.518Z,99665.94
2022-10-13T19:44:53.032Z,99663.38
2022-10-13T19:47:19.877Z,99659.81
2022-10-13T19:49:47.281Z,99656.25
2022-10-13T19:52:13.774Z,99660.91
2022-10-13T19:54:40.251Z,99659.28
2022-10-13T19:57:06.935Z,99659.72
2022-10-13T19:59:33.415Z,99663.00
2022-10-13T20:01:59.941Z,99654.75
2022-10-13T20:04:26.546Z,99654.66
2022-10-13T20:06:53.052Z,99662.56
2022-10-13T20:09:20.440Z,99652.06
2022-10-13T20:11:49.607Z,99649.75
2022-10-13T20:14:17.633Z,99639.97
2022-10-13T20:16:44.735Z,99645.53
2022-10-13T20:19:13.956Z,99638.88
2022-10-13T20:21:40.540Z,99632.56
2022-10-13T20:24:07.180Z,99633.81
2022-10-13T20:26:33.876Z,99633.47
2022-10-13T20:29:00.959Z,99623.22
2022-10-13T20:31:27.557Z,99621.19
2022-10-13T20:33:58.495Z,99637.22
2022-10-13T20:36:28.290Z,99635.88
2022-10-13T20:38:55.244Z,99631.44
2022-10-13T20:41:24.649Z,99636.13
2022-10-13T20:43:52.642Z,99633.94
2022-10-13T20:46:20.393Z,99632.00
2022-10-13T20:51:35.199Z,99633.47
2022-10-13T20:54:01.720Z,99634.22
2022-10-13T20:56:28.291Z,99631.19
2022-10-13T20:58:54.790Z,99630.66
2022-10-13T21:01:23.018Z,99636.47
2022-10-13T21:03:53.216Z,99633.69
2022-10-13T21:06:20.194Z,99631.31
2022-10-13T21:08:47.482Z,99633.53
2022-10-13T21:11:16.255Z,99629.63
2022-10-13T21:13:43.932Z,99631.97
2022-10-13T21:16:16.560Z,99630.00
2022-10-13T21:18:48.950Z,99624.84
2022-10-13T21:21:18.855Z,99629.91
2022-10-13T21:23:46.131Z,99618.47
2022-10-13T21:26:14.375Z,99623.88
2022-10-13T21:28:44.380Z,99618.72
2022-10-13T21:31:12.869Z,99609.56
2022-10-13T21:33:41.289Z,99606.38
2022-10-13T21:36:09.245Z,99612.59
2022-10-13T21:38:36.519Z,99614.91
2022-10-13T21:41:07.788Z,99607.72
2022-10-13T21:43:34.854Z,99602.59
2022-10-13T21:46:11.520Z,99605.34
2022-10-13T21:48:38.303Z,99605.34
2022-10-13T21:51:29.689Z,99606.22
2022-10-13T21:53:58.514Z,99609.41
2022-10-13T21:56:26.295Z,99601.13
2022-10-13T21:58:53.868Z,99597.25
2022-10-13T22:01:21.003Z,99601.56
2022-10-13T22:03:48.294Z,99596.53
2022-10-13T22:06:19.308Z,99596.88
2022-10-13T22:08:48.786Z,99595.28
2022-10-13T22:11:16.804Z,99598.38
2022-10-13T22:13:43.392Z,99593.59
2022-10-13T22:16:21.543Z,99592.81
2022-10-13T22:18:50.796Z,99598.59
2022-10-13T22:21:20.744Z,99598.91
2022-10-13T22:23:47.622Z,99607.88
2022-10-13T22:26:16.438Z,99601.25
2022-10-13T22:28:43.919Z,99593.34
2022-10-13T22:31:12.880Z,99591.72
2022-10-13T22:33:41.049Z,99598.75
2022-10-13T22:36:16.347Z,99591.63
2022-10-13T22:38:43.887Z,99589.25
2022-10-13T22:41:10.527Z,99586.88
2022-10-13T22:43:37.607Z,99579.31
2022-10-13T22:46:05.007Z,99569.44
2022-10-13T22:48:35.792Z,99568.31
2022-10-13T22:51:06.267Z,99577.88
2022-10-13T22:53:33.563Z,99581.38
2022-10-13T22:56:00.767Z,99578.59
2022-10-13T22:58:27.287Z,99575.06
2022-10-13T23:00:53.845Z,99575.31
2022-10-13T23:03:20.425Z,99579.47
2022-10-13T23:05:48.459Z,99581.78
2022-10-13T23:08:14.975Z,99572.22
2022-10-13T23:10:41.535Z,99571.84
2022-10-13T23:13:08.064Z,99573.00
2022-10-13T23:15:34.611Z,99571.66
2022-10-13T23:18:01.150Z,99565.97
2022-10-13T23:20:27.711Z,99567.47
2022-10-13T23:22:54.204Z,99565.44
2022-10-13T23:25:20.765Z,99566.94
2022-10-13T23:27:47.302Z,99573.13
2022-10-13T23:30:14.009Z,99570.75
2022-10-13T23:32:40.577Z,99570.75
2022-10-13T23:35:07.341Z,99567.56
2022-10-13T23:37:33.961Z,99569.84
2022-10-13T23:40:00.503Z,99566.31
2022-10-13T23:42:27.005Z,99565.84
2022-10-13T23:44:53.534Z,99559.47
2022-10-13T23:47:20.410Z,99568.16
2022-10-13T23:49:47.193Z,99567.34
2022-10-13T23:52:13.714Z,99561.84
2022-10-13T23:54:40.215Z,99569.41
2022-10-13T23:57:06.740Z,99568.78
2022-10-13T23:59:33.475Z,99569.41
